MNZ weather

Manassas Regional Airport/Harry P. Davis Field
Manassas, Virginia, United States

Public forecast

Using degrees Fahrenheit for public forecast. Weather courtesy of forecast.io.

METAR (pilot weather report)

Retrieved 2019/05/19 21:56 UTC (9 minutes ago):

KHEF 192156Z 19010KT 10SM CLR 32/21 A2989 RMK AO2 SLP128 T03170211 PNO $

TAF (pilot weather forecast)

Closest forecast is Washington Dulles International Airport, 13.7 nm (25.3 km) NNE. Retrieved 2019/05/19 18:45 UTC (3 hours ago):

TAF KIAD 191743Z 1918/2024 19009KT P6SM SCT010 BKN250 FM192000 19010G20KT P6SM VCTS SCT060CB FM200300 18009KT P6SM SCT060 FM201100 21007KT P6SM BKN250 FM201500 23010G19KT P6SM BKN050